Time;durP1;ratioP1;P1;durP2;ratioP2;P2;SDS_P1;SDS_P2;PMS_P1;PMS_P2;Temp;Humidity;BMP_temperature;BMP_pressure;BME280_temperature;BME280_humidity;BME280_pressure;Samples;Min_cycle;Max_cycle;Signal;HPM_P1;HPM_P2
2023/01/04 00:09:42;;;;;;;43.37;19.47;;;;;;;;;;6211882;22;1651938;-89
2023/01/04 00:12:47;;;;;;;44.70;19.70;;;;;;;;;;6255326;22;20231;-88
2023/01/04 00:15:52;;;;;;;43.20;19.10;;;;;;;;;;6255690;23;20190;-88
2023/01/04 00:18:58;;;;;;;43.27;18.27;;;;;;;;;;6256551;22;20182;-88
2023/01/04 00:22:02;;;;;;;39.67;16.80;;;;;;;;;;6255015;22;20170;-90
2023/01/04 00:25:09;;;;;;;42.83;17.60;;;;;;;;;;6256263;22;20496;-91
2023/01/04 00:28:14;;;;;;;39.43;17.80;;;;;;;;;;6255428;22;20294;-89
2023/01/04 00:31:19;;;;;;;48.00;18.47;;;;;;;;;;6257363;22;20170;-88
2023/01/04 00:34:24;;;;;;;43.00;17.70;;;;;;;;;;6255546;23;20224;-89
2023/01/04 00:37:31;;;;;;;45.27;17.10;;;;;;;;;;6259204;22;20244;-89
2023/01/04 00:40:39;;;;;;;49.73;18.23;;;;;;;;;;6258432;23;20231;-89
2023/01/04 00:43:44;;;;;;;47.20;17.63;;;;;;;;;;6257539;23;20166;-90
2023/01/04 00:46:50;;;;;;;50.77;15.47;;;;;;;;;;6258584;23;20159;-89
2023/01/04 00:49:55;;;;;;;57.53;13.90;;;;;;;;;;6256274;23;20189;-89
2023/01/04 00:53:00;;;;;;;31.10;14.23;;;;;;;;;;6257323;23;20162;-89
2023/01/04 00:56:06;;;;;;;36.77;13.67;;;;;;;;;;6257120;22;20167;-91
2023/01/04 00:59:12;;;;;;;39.93;14.83;;;;;;;;;;6258558;22;20167;-89
2023/01/04 01:02:18;;;;;;;36.27;14.93;;;;;;;;;;6259075;23;20170;-90
2023/01/04 01:05:23;;;;;;;29.63;14.53;;;;;;;;;;6256587;22;20167;-90
2023/01/04 01:08:28;;;;;;;35.37;15.20;;;;;;;;;;6257927;22;20225;-92
2023/01/04 01:11:35;;;;;;;34.07;15.40;;;;;;;;;;6256442;23;20177;-86
2023/01/04 01:14:40;;;;;;;112.97;47.00;;;;;;;;;;6258758;23;20218;-87
2023/01/04 01:17:45;;;;;;;43.73;16.83;;;;;;;;;;6257858;23;20214;-88
2023/01/04 01:20:50;;;;;;;79.70;18.37;;;;;;;;;;6258861;23;20625;-90
2023/01/04 01:23:56;;;;;;;49.73;17.80;;;;;;;;;;6260189;22;20600;-90
2023/01/04 01:27:03;;;;;;;66.17;17.27;;;;;;;;;;6259912;22;20170;-89
2023/01/04 01:30:08;;;;;;;52.53;17.13;;;;;;;;;;6259609;23;20182;-90
2023/01/04 01:33:13;;;;;;;61.00;16.53;;;;;;;;;;6258262;23;20242;-89
2023/01/04 01:36:19;;;;;;;106.23;18.20;;;;;;;;;;6259616;22;20166;-89
2023/01/04 01:39:26;;;;;;;219.53;21.40;;;;;;;;;;6260436;22;20150;-90
2023/01/04 01:42:33;;;;;;;120.90;19.33;;;;;;;;;;6260312;23;20166;-90
2023/01/04 01:45:38;;;;;;;270.20;24.20;;;;;;;;;;6259667;22;20213;-89
2023/01/04 01:48:44;;;;;;;271.03;32.23;;;;;;;;;;6260008;23;20178;-91
2023/01/04 01:51:49;;;;;;;127.10;20.43;;;;;;;;;;6260979;23;20166;-90
2023/01/04 01:54:57;;;;;;;159.90;20.73;;;;;;;;;;6258272;23;20170;-91
2023/01/04 01:58:06;;;;;;;99.63;18.33;;;;;;;;;;6259026;23;20155;-89
2023/01/04 02:01:11;;;;;;;149.53;19.67;;;;;;;;;;6258052;23;20175;-88
2023/01/04 02:04:16;;;;;;;130.93;20.33;;;;;;;;;;6256691;23;20162;-91
2023/01/04 02:07:24;;;;;;;94.67;19.50;;;;;;;;;;6260114;22;20171;-89
2023/01/04 02:10:29;;;;;;;147.70;21.03;;;;;;;;;;6270884;22;20185;-90
2023/01/04 02:17:06;;;;;;;196.20;21.83;;;;;;;;;;6272357;22;20164;-90
2023/01/04 02:20:24;;;;;;;211.20;24.53;;;;;;;;;;6272874;22;20181;-91
2023/01/04 02:24:00;;;;;;;203.90;21.07;;;;;;;;;;6271187;22;20166;-89
2023/01/04 02:27:19;;;;;;;130.60;20.37;;;;;;;;;;6168026;22;20169;-90
2023/01/04 02:30:44;;;;;;;223.13;22.60;;;;;;;;;;6271357;22;20288;-88
2023/01/04 02:33:54;;;;;;;96.93;19.10;;;;;;;;;;6270743;22;20189;-90
2023/01/04 02:37:00;;;;;;;132.13;18.83;;;;;;;;;;6272235;22;20165;-90
2023/01/04 02:40:11;;;;;;;188.17;18.83;;;;;;;;;;6270982;22;20297;-91
2023/01/04 02:46:45;;;;;;;88.87;17.80;;;;;;;;;;6272218;22;20173;-92
2023/01/04 02:53:16;;;;;;;237.10;19.80;;;;;;;;;;6270332;22;20171;-91
2023/01/04 02:56:34;;;;;;;187.37;19.10;;;;;;;;;;6271067;22;20241;-89
2023/01/04 02:59:51;;;;;;;75.43;16.77;;;;;;;;;;6272050;22;20492;-87
2023/01/04 03:06:45;;;;;;;123.70;17.57;;;;;;;;;;6272420;22;20150;-90
2023/01/04 03:09:53;;;;;;;86.03;15.57;;;;;;;;;;6272289;22;20259;-89
2023/01/04 03:13:01;;;;;;;73.50;15.60;;;;;;;;;;6270092;22;20249;-89
2023/01/04 03:16:08;;;;;;;56.63;14.90;;;;;;;;;;6270531;22;20490;-89
2023/01/04 03:19:50;;;;;;;44.10;15.37;;;;;;;;;;6268819;22;20166;-89
2023/01/04 03:36:32;;;;;;;37.10;14.40;;;;;;;;;;6269193;22;20165;-90
2023/01/04 03:50:03;;;;;;;38.53;15.30;;;;;;;;;;6270198;22;20236;-90
2023/01/04 03:53:09;;;;;;;39.03;14.13;;;;;;;;;;6269163;22;20165;-88
2023/01/04 03:56:17;;;;;;;46.97;15.30;;;;;;;;;;6269587;22;20161;-89
2023/01/04 03:59:23;;;;;;;48.70;15.43;;;;;;;;;;6270521;22;20620;-89
2023/01/04 04:02:30;;;;;;;36.90;15.37;;;;;;;;;;6269306;22;20166;-88
2023/01/04 04:09:00;;;;;;;31.90;13.93;;;;;;;;;;6269828;22;20200;-89
2023/01/04 04:12:07;;;;;;;32.57;13.97;;;;;;;;;;6270009;22;20177;-89
2023/01/04 04:15:12;;;;;;;30.87;13.03;;;;;;;;;;6268658;22;20588;-90
2023/01/04 04:18:17;;;;;;;30.40;13.57;;;;;;;;;;6270119;22;20165;-90
2023/01/04 04:21:22;;;;;;;32.20;14.20;;;;;;;;;;6268507;22;20312;-89
2023/01/04 04:24:28;;;;;;;35.33;14.97;;;;;;;;;;6269045;22;20165;-88
2023/01/04 04:27:35;;;;;;;29.90;13.40;;;;;;;;;;6269916;22;20162;-89
2023/01/04 04:30:40;;;;;;;32.70;14.30;;;;;;;;;;6269074;22;20635;-89
2023/01/04 04:33:46;;;;;;;35.53;15.27;;;;;;;;;;6271048;22;20161;-89
2023/01/04 04:36:51;;;;;;;32.00;14.00;;;;;;;;;;6271536;22;20218;-89
2023/01/04 04:39:56;;;;;;;33.77;14.87;;;;;;;;;;6268753;22;20169;-89
2023/01/04 04:43:01;;;;;;;31.33;13.87;;;;;;;;;;6269593;22;20245;-88
2023/01/04 04:46:06;;;;;;;29.03;13.60;;;;;;;;;;6270843;22;20205;-88
2023/01/04 04:49:12;;;;;;;30.87;13.10;;;;;;;;;;6269787;22;20197;-90
2023/01/04 04:52:17;;;;;;;33.30;14.33;;;;;;;;;;6269722;22;20170;-90
2023/01/04 04:55:22;;;;;;;30.80;14.03;;;;;;;;;;6270555;22;20157;-89
2023/01/04 04:58:29;;;;;;;36.30;15.27;;;;;;;;;;6270448;22;20174;-86
2023/01/04 05:01:34;;;;;;;33.67;14.47;;;;;;;;;;6273058;22;20157;-88
2023/01/04 05:04:40;;;;;;;34.40;15.20;;;;;;;;;;6270121;22;20284;-89
2023/01/04 05:07:45;;;;;;;32.97;14.30;;;;;;;;;;6272505;22;20169;-90
2023/01/04 05:10:50;;;;;;;31.23;14.17;;;;;;;;;;6271276;22;20194;-91
2023/01/04 05:13:55;;;;;;;29.43;13.13;;;;;;;;;;6270030;22;20205;-87
2023/01/04 05:17:00;;;;;;;29.07;13.23;;;;;;;;;;6270067;22;20173;-89
2023/01/04 05:20:06;;;;;;;33.60;14.40;;;;;;;;;;6271651;22;20174;-88
2023/01/04 05:23:12;;;;;;;29.63;13.37;;;;;;;;;;6270817;22;20242;-90
2023/01/04 05:26:17;;;;;;;29.63;12.53;;;;;;;;;;6271844;22;20162;-90
2023/01/04 05:32:46;;;;;;;30.93;12.77;;;;;;;;;;6271271;22;20161;-91
2023/01/04 05:35:52;;;;;;;32.10;13.70;;;;;;;;;;6271004;22;20227;-89
2023/01/04 05:38:57;;;;;;;29.20;12.53;;;;;;;;;;6271924;22;20168;-89
2023/01/04 05:45:27;;;;;;;30.30;13.17;;;;;;;;;;6273251;22;20169;-90
2023/01/04 05:48:32;;;;;;;33.77;13.80;;;;;;;;;;6273494;22;20166;-91
2023/01/04 05:51:37;;;;;;;29.70;12.70;;;;;;;;;;6270640;22;20233;-91
2023/01/04 05:54:42;;;;;;;31.40;12.63;;;;;;;;;;6271890;22;20169;-90
2023/01/04 05:57:47;;;;;;;28.33;12.87;;;;;;;;;;6270667;22;20240;-89
2023/01/04 06:00:54;;;;;;;34.93;13.07;;;;;;;;;;6272424;22;20169;-89
2023/01/04 06:03:59;;;;;;;36.03;13.33;;;;;;;;;;6270489;22;20165;-91
2023/01/04 06:07:09;;;;;;;34.97;13.33;;;;;;;;;;6269288;22;20166;-91
2023/01/04 06:10:14;;;;;;;38.43;13.37;;;;;;;;;;6273344;22;20277;-91
2023/01/04 06:13:20;;;;;;;34.47;12.67;;;;;;;;;;6271785;22;20687;-90
2023/01/04 06:16:27;;;;;;;37.10;13.93;;;;;;;;;;6271965;22;20209;-89
2023/01/04 06:19:32;;;;;;;39.67;13.57;;;;;;;;;;6273039;22;20162;-91
2023/01/04 06:22:40;;;;;;;44.40;15.37;;;;;;;;;;6272549;22;20170;-90
2023/01/04 06:25:46;;;;;;;37.60;13.90;;;;;;;;;;6291148;22;20146;-88
2023/01/04 06:28:51;;;;;;;48.87;14.97;;;;;;;;;;6271464;22;20166;-92
2023/01/04 06:32:04;;;;;;;44.27;15.17;;;;;;;;;;6271443;22;20229;-92
2023/01/04 06:35:10;;;;;;;40.97;13.60;;;;;;;;;;6272328;22;20173;-89
2023/01/04 06:41:34;;;;;;;47.23;15.43;;;;;;;;;;6273184;22;20182;-88
2023/01/04 06:45:09;;;;;;;41.07;15.03;;;;;;;;;;6270703;22;20205;-90
2023/01/04 06:48:16;;;;;;;42.20;15.20;;;;;;;;;;6271953;22;20170;-89
2023/01/04 06:51:21;;;;;;;46.90;15.33;;;;;;;;;;6270843;22;20236;-91
2023/01/04 06:54:27;;;;;;;49.77;17.17;;;;;;;;;;6270833;22;20238;-90
2023/01/04 06:57:32;;;;;;;52.43;16.77;;;;;;;;;;6273521;22;20166;-88
2023/01/04 07:00:37;;;;;;;56.50;17.10;;;;;;;;;;6272215;22;20165;-89
2023/01/04 07:03:44;;;;;;;57.67;17.10;;;;;;;;;;6273950;22;20165;-90
2023/01/04 07:06:49;;;;;;;48.07;15.80;;;;;;;;;;6270081;22;20165;-91
2023/01/04 07:09:55;;;;;;;43.67;16.47;;;;;;;;;;6272095;22;20165;-90
2023/01/04 07:13:00;;;;;;;37.90;14.37;;;;;;;;;;6268949;22;20170;-89
2023/01/04 07:16:05;;;;;;;38.37;14.70;;;;;;;;;;6270107;22;20484;-90
2023/01/04 07:19:12;;;;;;;44.43;15.33;;;;;;;;;;6271855;22;20154;-91
2023/01/04 07:22:17;;;;;;;44.00;15.83;;;;;;;;;;6271457;22;20616;-90
2023/01/04 07:25:23;;;;;;;38.70;13.87;;;;;;;;;;6271625;22;20174;-90
2023/01/04 07:31:52;;;;;;;40.77;15.53;;;;;;;;;;6271095;22;20213;-90
2023/01/04 07:34:59;;;;;;;41.63;15.17;;;;;;;;;;6270505;22;20608;-91
2023/01/04 07:38:04;;;;;;;45.30;15.80;;;;;;;;;;6269412;22;20264;-90
2023/01/04 07:41:09;;;;;;;38.00;14.97;;;;;;;;;;6271310;22;20158;-90
2023/01/04 07:44:41;;;;;;;37.77;14.30;;;;;;;;;;6270453;22;20169;-89
2023/01/04 07:47:46;;;;;;;37.10;14.60;;;;;;;;;;6270993;22;20157;-90
2023/01/04 07:50:53;;;;;;;37.70;15.47;;;;;;;;;;6271407;22;20259;-89
2023/01/04 07:53:58;;;;;;;39.87;14.97;;;;;;;;;;6289813;22;20588;-87
2023/01/04 07:57:04;;;;;;;36.53;14.73;;;;;;;;;;6288561;22;20184;-88
2023/01/04 08:00:10;;;;;;;33.83;13.17;;;;;;;;;;6272504;22;20212;-88
2023/01/04 08:03:18;;;;;;;33.87;14.40;;;;;;;;;;6275689;22;20156;-89
2023/01/04 08:06:24;;;;;;;31.77;13.33;;;;;;;;;;6272297;22;20166;-89
2023/01/04 08:09:33;;;;;;;34.33;14.27;;;;;;;;;;6272339;22;20189;-89
2023/01/04 08:12:38;;;;;;;69.67;29.70;;;;;;;;;;6269321;22;20603;-87
2023/01/04 08:15:43;;;;;;;37.07;15.23;;;;;;;;;;6270705;22;20225;-91
2023/01/04 08:18:48;;;;;;;30.80;13.00;;;;;;;;;;6270967;22;20158;-89
2023/01/04 08:21:54;;;;;;;29.17;11.80;;;;;;;;;;6270745;22;20165;-89
2023/01/04 08:24:59;;;;;;;25.30;12.03;;;;;;;;;;6270111;22;20667;-90
2023/01/04 08:28:04;;;;;;;29.80;13.53;;;;;;;;;;6268842;22;20170;-90
2023/01/04 08:31:11;;;;;;;35.77;14.53;;;;;;;;;;6272292;22;20233;-89
2023/01/04 08:34:16;;;;;;;36.73;13.73;;;;;;;;;;6270887;22;20166;-89
2023/01/04 08:37:23;;;;;;;28.37;12.30;;;;;;;;;;6272137;22;20214;-90
2023/01/04 08:40:28;;;;;;;27.33;12.30;;;;;;;;;;6269700;22;20240;-89
2023/01/04 08:43:34;;;;;;;24.80;11.47;;;;;;;;;;6269727;22;20149;-90
2023/01/04 08:46:39;;;;;;;20.70;10.00;;;;;;;;;;6269974;22;20166;-91
2023/01/04 08:49:44;;;;;;;24.87;10.90;;;;;;;;;;6271281;22;20166;-89
2023/01/04 08:52:51;;;;;;;21.40;10.57;;;;;;;;;;6273797;22;20165;-89
2023/01/04 08:55:58;;;;;;;21.10;10.43;;;;;;;;;;6270581;22;20161;-91
2023/01/04 08:59:03;;;;;;;21.92;10.77;;;;;;;;;;6270127;22;20189;-92
2023/01/04 09:02:18;;;;;;;22.07;10.30;;;;;;;;;;6271194;22;20174;-92
2023/01/04 09:05:24;;;;;;;19.87;9.83;;;;;;;;;;6271392;22;20216;-90
2023/01/04 09:08:31;;;;;;;20.73;9.87;;;;;;;;;;6269889;22;20181;-91
2023/01/04 09:11:38;;;;;;;19.83;9.53;;;;;;;;;;6268644;22;20189;-90
2023/01/04 09:14:43;;;;;;;20.17;9.97;;;;;;;;;;6269625;22;20162;-90
2023/01/04 09:17:49;;;;;;;18.57;9.40;;;;;;;;;;6272212;22;20161;-91
2023/01/04 09:20:55;;;;;;;17.70;9.27;;;;;;;;;;6289983;22;20174;-90
2023/01/04 09:24:01;;;;;;;18.63;9.10;;;;;;;;;;6290730;22;20165;-91
2023/01/04 09:27:06;;;;;;;20.88;9.65;;;;;;;;;;6288145;22;20162;-90
2023/01/04 09:30:12;;;;;;;16.95;9.15;;;;;;;;;;6270698;22;20154;-90
2023/01/04 09:33:17;;;;;;;20.58;9.10;;;;;;;;;;6271937;22;20166;-89
2023/01/04 09:36:23;;;;;;;18.95;9.70;;;;;;;;;;6273766;22;20209;-87
2023/01/04 09:39:32;;;;;;;21.35;10.07;;;;;;;;;;6289439;22;20503;-88
2023/01/04 09:42:39;;;;;;;18.38;9.20;;;;;;;;;;6271260;22;20166;-89
2023/01/04 09:45:45;;;;;;;16.20;8.43;;;;;;;;;;6287993;22;20217;-90
2023/01/04 09:48:52;;;;;;;16.63;8.50;;;;;;;;;;6287983;22;20599;-89
2023/01/04 09:51:59;;;;;;;15.07;7.90;;;;;;;;;;6270677;22;20193;-89
2023/01/04 09:55:10;;;;;;;15.00;8.75;;;;;;;;;;6290527;22;20289;-90
2023/01/04 09:58:20;;;;;;;18.13;9.65;;;;;;;;;;6289911;22;20169;-89
2023/01/04 10:01:26;;;;;;;13.27;7.43;;;;;;;;;;6273570;22;20165;-89
2023/01/04 10:04:37;;;;;;;13.30;7.38;;;;;;;;;;6291854;22;20227;-88
2023/01/04 10:07:42;;;;;;;13.88;7.75;;;;;;;;;;6292433;22;20180;-91
2023/01/04 10:10:50;;;;;;;16.02;7.65;;;;;;;;;;6272430;22;20281;-90
2023/01/04 10:14:05;;;;;;;14.10;7.78;;;;;;;;;;6272273;22;20173;-88
2023/01/04 10:17:15;;;;;;;14.63;8.05;;;;;;;;;;6271390;22;20158;-87
2023/01/04 10:20:32;;;;;;;21.88;7.97;;;;;;;;;;6271328;22;20170;-90
2023/01/04 10:23:44;;;;;;;14.57;7.68;;;;;;;;;;6271033;22;20189;-88
2023/01/04 10:26:51;;;;;;;12.63;7.05;;;;;;;;;;6292835;22;20281;-90
2023/01/04 10:30:04;;;;;;;14.43;7.68;;;;;;;;;;6293060;22;20169;-91
2023/01/04 10:33:11;;;;;;;12.88;7.53;;;;;;;;;;6275201;22;20185;-89
2023/01/04 10:36:18;;;;;;;14.85;8.27;;;;;;;;;;6273877;22;20294;-90
2023/01/04 10:39:26;;;;;;;15.90;8.20;;;;;;;;;;6292661;22;20196;-90
2023/01/04 10:42:34;;;;;;;13.70;7.50;;;;;;;;;;6273341;22;20169;-90
2023/01/04 10:45:41;;;;;;;15.38;7.93;;;;;;;;;;6273701;22;20170;-90
2023/01/04 10:48:50;;;;;;;12.05;6.80;;;;;;;;;;6272279;22;20149;-91
2023/01/04 10:51:59;;;;;;;11.52;6.60;;;;;;;;;;6271332;22;20257;-90
2023/01/04 10:55:05;;;;;;;11.85;6.57;;;;;;;;;;6288660;22;20174;-90
2023/01/04 10:58:16;;;;;;;12.98;6.93;;;;;;;;;;6270240;22;20216;-90
2023/01/04 11:01:23;;;;;;;15.02;7.97;;;;;;;;;;6270558;22;20204;-88
2023/01/04 11:04:30;;;;;;;10.93;6.45;;;;;;;;;;6289951;22;20193;-88
2023/01/04 11:07:40;;;;;;;10.95;5.82;;;;;;;;;;6273650;22;20165;-89
2023/01/04 11:10:48;;;;;;;12.63;6.50;;;;;;;;;;6272808;22;20678;-91
2023/01/04 11:13:55;;;;;;;12.13;6.65;;;;;;;;;;6289386;22;20175;-88
2023/01/04 11:17:04;;;;;;;14.38;7.63;;;;;;;;;;6276111;22;20162;-88
2023/01/04 11:20:19;;;;;;;13.55;6.00;;;;;;;;;;6274218;22;20232;-89
2023/01/04 11:23:24;;;;;;;13.55;6.38;;;;;;;;;;6271505;22;20161;-87
2023/01/04 11:26:33;;;;;;;14.07;7.45;;;;;;;;;;6275303;22;20153;-90
2023/01/04 11:29:43;;;;;;;13.30;7.15;;;;;;;;;;6288964;22;20218;-89
2023/01/04 11:32:52;;;;;;;13.40;7.00;;;;;;;;;;6291376;22;20197;-90
2023/01/04 11:36:00;;;;;;;16.48;7.65;;;;;;;;;;6292084;22;20201;-90
2023/01/04 11:39:07;;;;;;;15.43;7.43;;;;;;;;;;6288590;22;20170;-90
2023/01/04 11:42:20;;;;;;;13.32;7.10;;;;;;;;;;6290229;22;20189;-90
2023/01/04 11:45:28;;;;;;;15.18;7.78;;;;;;;;;;6288807;22;20180;-90
2023/01/04 11:48:36;;;;;;;14.40;7.07;;;;;;;;;;6290988;22;20177;-89
2023/01/04 11:51:41;;;;;;;15.38;7.47;;;;;;;;;;6273037;22;20193;-90
2023/01/04 11:54:46;;;;;;;11.88;6.53;;;;;;;;;;6288415;22;20185;-90
2023/01/04 11:58:05;;;;;;;12.35;6.72;;;;;;;;;;6271833;22;20157;-89
2023/01/04 12:01:23;;;;;;;14.40;7.70;;;;;;;;;;6289170;22;20158;-88
2023/01/04 12:04:29;;;;;;;12.88;7.13;;;;;;;;;;6291695;22;20216;-91
2023/01/04 12:07:35;;;;;;;13.48;7.25;;;;;;;;;;6288028;22;20247;-90
2023/01/04 12:10:40;;;;;;;11.48;6.75;;;;;;;;;;6273059;22;20171;-91
2023/01/04 12:13:46;;;;;;;13.15;6.68;;;;;;;;;;6272896;22;20180;-90
2023/01/04 12:17:02;;;;;;;12.70;7.28;;;;;;;;;;6270729;22;20165;-91
2023/01/04 12:20:12;;;;;;;14.00;7.78;;;;;;;;;;6270157;22;20149;-89
2023/01/04 12:23:19;;;;;;;12.13;6.90;;;;;;;;;;6267511;22;20173;-89
2023/01/04 12:26:24;;;;;;;11.75;6.80;;;;;;;;;;6268623;22;20165;-90
2023/01/04 12:29:33;;;;;;;11.30;6.57;;;;;;;;;;6268952;22;20185;-89
2023/01/04 12:32:41;;;;;;;10.23;6.10;;;;;;;;;;6269211;22;20194;-88
2023/01/04 12:36:05;;;;;;;9.98;6.18;;;;;;;;;;6289117;22;20184;-89
2023/01/04 12:39:28;;;;;;;11.45;6.38;;;;;;;;;;6289123;22;20167;-90
2023/01/04 12:42:33;;;;;;;12.52;6.82;;;;;;;;;;6269741;22;20174;-88
2023/01/04 12:45:38;;;;;;;11.60;6.88;;;;;;;;;;6269131;22;20170;-90
2023/01/04 12:52:26;;;;;;;13.15;7.30;;;;;;;;;;6270548;22;20197;-89
2023/01/04 12:55:58;;;;;;;13.88;7.07;;;;;;;;;;6271672;22;20166;-89
2023/01/04 12:59:08;;;;;;;13.68;7.43;;;;;;;;;;6273076;22;20675;-89
2023/01/04 13:02:31;;;;;;;13.10;6.60;;;;;;;;;;6272999;22;20169;-90
2023/01/04 13:05:45;;;;;;;13.63;6.90;;;;;;;;;;6295088;22;20249;-89
2023/01/04 13:08:56;;;;;;;13.90;7.13;;;;;;;;;;6283131;22;20241;-87
2023/01/04 13:12:07;;;;;;;12.57;6.97;;;;;;;;;;6295626;22;20232;-92
2023/01/04 13:15:16;;;;;;;12.95;7.20;;;;;;;;;;6273659;22;20177;-89
2023/01/04 13:18:36;;;;;;;15.00;7.32;;;;;;;;;;6274904;22;20164;-88
2023/01/04 13:21:44;;;;;;;16.67;7.50;;;;;;;;;;6293408;22;20150;-88
2023/01/04 13:24:50;;;;;;;14.75;7.80;;;;;;;;;;6271814;22;20181;-92
2023/01/04 13:27:57;;;;;;;16.47;8.90;;;;;;;;;;6289589;22;20170;-89
2023/01/04 13:31:02;;;;;;;18.77;8.73;;;;;;;;;;6270726;22;20170;-91
2023/01/04 13:34:07;;;;;;;17.05;8.50;;;;;;;;;;6272542;22;20168;-88
2023/01/04 13:37:18;;;;;;;13.77;7.80;;;;;;;;;;6282011;22;20166;-91
2023/01/04 13:40:24;;;;;;;13.75;7.40;;;;;;;;;;6275341;22;20611;-90
2023/01/04 13:43:43;;;;;;;15.87;8.93;;;;;;;;;;6290581;22;20238;-89
2023/01/04 13:46:49;;;;;;;18.25;9.55;;;;;;;;;;6272794;22;20666;-90
2023/01/04 13:49:57;;;;;;;22.23;11.48;;;;;;;;;;6288215;22;20166;-90
2023/01/04 13:53:04;;;;;;;18.33;9.23;;;;;;;;;;6270421;22;20197;-89
2023/01/04 13:56:18;;;;;;;16.65;8.23;;;;;;;;;;6289763;22;20499;-90
2023/01/04 13:59:23;;;;;;;18.52;9.38;;;;;;;;;;6289479;22;20169;-88
2023/01/04 14:02:30;;;;;;;20.73;10.45;;;;;;;;;;6270943;22;20356;-89
2023/01/04 14:05:35;;;;;;;19.25;10.07;;;;;;;;;;6273615;22;20177;-89
2023/01/04 14:08:43;;;;;;;21.60;10.20;;;;;;;;;;6273278;22;20189;-91
2023/01/04 14:12:00;;;;;;;20.33;10.65;;;;;;;;;;6269380;22;20604;-87
2023/01/04 14:15:16;;;;;;;19.27;9.57;;;;;;;;;;6270047;22;20170;-87
2023/01/04 14:18:28;;;;;;;17.55;10.00;;;;;;;;;;6269858;22;20258;-89
2023/01/04 14:21:37;;;;;;;17.38;9.40;;;;;;;;;;6268975;22;20230;-89
2023/01/04 14:24:44;;;;;;;18.05;9.88;;;;;;;;;;6271168;22;20733;-89
2023/01/04 14:27:50;;;;;;;19.88;10.00;;;;;;;;;;6271011;22;20240;-87
2023/01/04 14:30:57;;;;;;;18.10;9.60;;;;;;;;;;6269311;22;20293;-89
2023/01/04 14:34:06;;;;;;;18.00;9.65;;;;;;;;;;6268814;22;20189;-88
2023/01/04 14:37:11;;;;;;;402.85;121.25;;;;;;;;;;6269372;22;20149;-90
2023/01/04 14:40:23;;;;;;;553.97;154.57;;;;;;;;;;6271780;22;20166;-90
2023/01/04 14:43:35;;;;;;;35.67;17.35;;;;;;;;;;6271811;22;20170;-89
2023/01/04 14:46:42;;;;;;;27.48;14.55;;;;;;;;;;6270429;22;20166;-87
2023/01/04 14:49:47;;;;;;;24.17;11.73;;;;;;;;;;6270047;22;20212;-89
2023/01/04 14:52:53;;;;;;;22.85;11.65;;;;;;;;;;6269923;22;20255;-91
2023/01/04 14:55:59;;;;;;;21.73;11.52;;;;;;;;;;6272148;22;20201;-89
2023/01/04 14:59:04;;;;;;;28.05;15.10;;;;;;;;;;6273764;22;20165;-89
2023/01/04 15:02:11;;;;;;;21.77;12.07;;;;;;;;;;6269477;22;20161;-89
2023/01/04 15:05:18;;;;;;;21.48;11.20;;;;;;;;;;6269697;22;20225;-89
2023/01/04 15:08:23;;;;;;;23.50;12.23;;;;;;;;;;6269136;22;20240;-88
2023/01/04 15:11:30;;;;;;;25.42;12.48;;;;;;;;;;6270150;22;20171;-89
2023/01/04 15:14:35;;;;;;;21.85;11.27;;;;;;;;;;6272219;22;20173;-88
2023/01/04 15:17:40;;;;;;;21.60;11.35;;;;;;;;;;6271839;22;20170;-88
2023/01/04 15:20:46;;;;;;;26.73;12.52;;;;;;;;;;6271361;22;20174;-91
2023/01/04 15:23:52;;;;;;;22.75;11.95;;;;;;;;;;6270139;22;20161;-88
2023/01/04 15:26:59;;;;;;;22.67;11.60;;;;;;;;;;6270107;22;20269;-91
2023/01/04 15:30:04;;;;;;;23.13;11.10;;;;;;;;;;6269885;22;20293;-90
2023/01/04 15:33:10;;;;;;;20.73;10.48;;;;;;;;;;6269671;22;20193;-89
2023/01/04 15:36:15;;;;;;;24.15;10.80;;;;;;;;;;6269351;22;20162;-91
2023/01/04 15:39:21;;;;;;;19.50;11.07;;;;;;;;;;6270426;22;20166;-89
2023/01/04 15:45:50;;;;;;;34.05;15.55;;;;;;;;;;6270076;22;20216;-90
2023/01/04 15:48:56;;;;;;;28.60;14.75;;;;;;;;;;6269440;22;20169;-86
2023/01/04 15:52:02;;;;;;;26.25;13.38;;;;;;;;;;6269014;22;20604;-90
2023/01/04 15:55:08;;;;;;;26.60;11.88;;;;;;;;;;6271133;22;20225;-89
2023/01/04 15:58:14;;;;;;;24.45;12.25;;;;;;;;;;6270625;22;20174;-86
2023/01/04 16:01:20;;;;;;;31.02;14.25;;;;;;;;;;6272502;22;20149;-90
2023/01/04 16:04:28;;;;;;;38.17;16.40;;;;;;;;;;6270437;22;20166;-87
2023/01/04 16:07:34;;;;;;;31.50;15.65;;;;;;;;;;6270896;22;20162;-89
2023/01/04 16:10:39;;;;;;;31.30;15.13;;;;;;;;;;6271883;22;20200;-89
2023/01/04 16:13:46;;;;;;;30.00;14.35;;;;;;;;;;6270726;22;20340;-88
2023/01/04 16:16:51;;;;;;;29.73;13.98;;;;;;;;;;6272965;22;20181;-92
2023/01/04 16:19:56;;;;;;;27.40;12.65;;;;;;;;;;6273453;22;20161;-90
2023/01/04 16:23:01;;;;;;;22.83;12.15;;;;;;;;;;6271187;22;20174;-89
2023/01/04 16:26:09;;;;;;;26.48;13.50;;;;;;;;;;6274279;22;20166;-89
2023/01/04 16:29:25;;;;;;;27.23;14.60;;;;;;;;;;6277496;22;20166;-91
2023/01/04 16:32:31;;;;;;;24.08;12.43;;;;;;;;;;6276671;22;20162;-88
2023/01/04 16:35:41;;;;;;;24.30;12.20;;;;;;;;;;6276519;22;20246;-90
2023/01/04 16:38:46;;;;;;;19.35;10.50;;;;;;;;;;6276242;22;20169;-87
2023/01/04 16:41:51;;;;;;;22.52;12.25;;;;;;;;;;6276269;22;20158;-89
2023/01/04 16:44:58;;;;;;;19.23;10.70;;;;;;;;;;6275754;22;20172;-91
2023/01/04 16:48:04;;;;;;;23.48;11.70;;;;;;;;;;6276200;22;20174;-89
2023/01/04 16:51:10;;;;;;;25.48;12.23;;;;;;;;;;6277804;22;20345;-90
2023/01/04 16:54:16;;;;;;;23.73;11.02;;;;;;;;;;6276192;22;20209;-90
2023/01/04 16:57:22;;;;;;;22.23;11.30;;;;;;;;;;6276848;22;20162;-90
2023/01/04 17:00:29;;;;;;;29.23;14.73;;;;;;;;;;6277609;22;20212;-90
2023/01/04 17:03:34;;;;;;;25.67;13.55;;;;;;;;;;6275761;22;20620;-89
2023/01/04 17:06:43;;;;;;;26.55;14.35;;;;;;;;;;6275381;22;20161;-89
2023/01/04 17:09:50;;;;;;;43.60;21.60;;;;;;;;;;6277134;22;20211;-90
2023/01/04 17:12:55;;;;;;;46.63;22.25;;;;;;;;;;6276922;22;20169;-88
2023/01/04 17:16:02;;;;;;;38.88;19.58;;;;;;;;;;6276093;22;20166;-89
2023/01/04 17:19:07;;;;;;;35.60;17.95;;;;;;;;;;6274048;22;20239;-90
2023/01/04 17:22:12;;;;;;;36.08;17.75;;;;;;;;;;6275580;22;20174;-91
2023/01/04 17:25:17;;;;;;;27.10;14.57;;;;;;;;;;6273627;22;20216;-89
2023/01/04 17:28:22;;;;;;;31.15;16.20;;;;;;;;;;6275734;22;20225;-91
2023/01/04 17:31:30;;;;;;;30.73;14.38;;;;;;;;;;6275971;22;20222;-88
2023/01/04 17:34:35;;;;;;;29.42;13.90;;;;;;;;;;6274901;22;20193;-88
2023/01/04 17:37:41;;;;;;;27.08;14.63;;;;;;;;;;6272072;22;20162;-90
2023/01/04 17:40:46;;;;;;;29.05;15.02;;;;;;;;;;6273019;22;20157;-90
2023/01/04 17:43:52;;;;;;;24.20;12.75;;;;;;;;;;6273827;22;20212;-89
2023/01/04 17:46:59;;;;;;;23.77;12.52;;;;;;;;;;6273074;22;20149;-89
2023/01/04 17:50:04;;;;;;;26.80;12.40;;;;;;;;;;6272945;22;20173;-91
2023/01/04 17:53:10;;;;;;;32.20;15.27;;;;;;;;;;6273417;22;20174;-90
2023/01/04 17:56:15;;;;;;;30.98;14.88;;;;;;;;;;6272212;22;20166;-89
2023/01/04 17:59:21;;;;;;;26.48;13.40;;;;;;;;;;6270418;22;20173;-91
2023/01/04 18:02:28;;;;;;;31.42;14.07;;;;;;;;;;6272288;22;20154;-92
2023/01/04 18:05:33;;;;;;;30.30;15.05;;;;;;;;;;6275664;22;20405;-91
2023/01/04 18:08:38;;;;;;;34.05;17.05;;;;;;;;;;6272999;22;20200;-89
2023/01/04 18:11:43;;;;;;;33.30;14.55;;;;;;;;;;6271719;22;20169;-91
2023/01/04 18:14:49;;;;;;;65.50;29.70;;;;;;;;;;6272813;22;20177;-87
2023/01/04 18:17:55;;;;;;;25.33;14.07;;;;;;;;;;6272376;22;20285;-90
2023/01/04 18:21:08;;;;;;;25.40;13.25;;;;;;;;;;6271664;22;20185;-90
2023/01/04 18:24:14;;;;;;;21.50;10.65;;;;;;;;;;6272351;22;20187;-91
2023/01/04 18:27:19;;;;;;;23.30;11.52;;;;;;;;;;6273280;22;20173;-90
2023/01/04 18:30:25;;;;;;;25.33;12.30;;;;;;;;;;6272434;22;20162;-89
2023/01/04 18:33:32;;;;;;;26.35;12.85;;;;;;;;;;6273907;22;20193;-91
2023/01/04 18:36:38;;;;;;;26.83;13.63;;;;;;;;;;6272684;22;20238;-91
2023/01/04 18:39:43;;;;;;;23.90;11.82;;;;;;;;;;6273904;22;20608;-90
2023/01/04 18:42:48;;;;;;;25.38;12.70;;;;;;;;;;6274543;22;20169;-89
2023/01/04 18:45:54;;;;;;;28.80;12.63;;;;;;;;;;6274225;22;20165;-90
2023/01/04 18:49:02;;;;;;;22.63;11.75;;;;;;;;;;6269836;22;20205;-89
2023/01/04 18:52:08;;;;;;;23.67;11.70;;;;;;;;;;6271097;22;20177;-89
2023/01/04 18:55:12;;;;;;;78.95;24.15;;;;;;;;;;6272135;22;20197;-89
2023/01/04 18:58:18;;;;;;;30.85;13.52;;;;;;;;;;6275090;22;20234;-89
2023/01/04 19:01:28;;;;;;;36.15;15.07;;;;;;;;;;6270479;22;20181;-89
2023/01/04 19:04:35;;;;;;;26.42;12.85;;;;;;;;;;6270897;22;20180;-89
2023/01/04 19:07:41;;;;;;;33.88;16.63;;;;;;;;;;6272026;22;20160;-88
2023/01/04 19:10:46;;;;;;;28.65;14.05;;;;;;;;;;6272408;22;20169;-89
2023/01/04 19:13:54;;;;;;;23.45;13.10;;;;;;;;;;6274031;22;20189;-90
2023/01/04 19:16:59;;;;;;;32.88;13.27;;;;;;;;;;6276710;22;20166;-89
2023/01/04 19:20:07;;;;;;;28.05;13.25;;;;;;;;;;6275018;22;20209;-89
2023/01/04 19:23:20;;;;;;;31.08;14.00;;;;;;;;;;6271834;22;20224;-91